Time;durP1;ratioP1;P1;durP2;ratioP2;P2;SDS_P1;SDS_P2;PMS_P1;PMS_P2;Temp;Humidity;BMP_temperature;BMP_pressure;BME280_temperature;BME280_humidity;BME280_pressure;Samples;Min_cycle;Max_cycle;Signal;HPM_P1;HPM_P2
2024/01/20 00:01:56;;;;;;;0.30;0.30;;;4.10;99.90;;;;;;5012366;28;20264;-89
2024/01/20 00:04:22;;;;;;;0.40;0.40;;;4.10;99.90;;;;;;4996246;28;20183;-89
2024/01/20 00:06:48;;;;;;;4.43;1.40;;;4.10;99.90;;;;;;5013609;28;20175;-91
2024/01/20 00:09:13;;;;;;;0.30;0.30;;;4.10;99.90;;;;;;4996499;28;20175;-89
2024/01/20 00:11:39;;;;;;;0.60;0.43;;;4.20;99.90;;;;;;5012314;28;20184;-88
2024/01/20 00:14:05;;;;;;;0.87;0.70;;;4.20;99.90;;;;;;5012757;28;20187;-88
2024/01/20 00:16:31;;;;;;;2.13;0.60;;;4.20;99.90;;;;;;5011949;28;20175;-89
2024/01/20 00:18:57;;;;;;;0.73;0.73;;;4.30;99.90;;;;;;5012247;28;20188;-89
2024/01/20 00:21:23;;;;;;;0.53;0.53;;;4.30;99.90;;;;;;5013848;28;20689;-88
2024/01/20 00:23:49;;;;;;;0.63;0.60;;;4.30;99.90;;;;;;5016795;28;20218;-90
2024/01/20 00:26:15;;;;;;;0.50;0.50;;;4.20;99.90;;;;;;5015568;28;20183;-90
2024/01/20 00:28:41;;;;;;;0.40;0.40;;;4.20;99.90;;;;;;5015750;28;20179;-89
2024/01/20 00:31:07;;;;;;;0.40;0.40;;;4.10;99.90;;;;;;5015832;28;20242;-90
2024/01/20 00:33:32;;;;;;;0.30;0.30;;;4.00;99.90;;;;;;5015915;28;20179;-89
2024/01/20 00:35:58;;;;;;;0.70;0.70;;;4.00;99.90;;;;;;5016753;28;20183;-89
2024/01/20 00:38:25;;;;;;;0.87;0.77;;;4.00;99.90;;;;;;5016714;28;20179;-89
2024/01/20 00:40:52;;;;;;;0.30;0.30;;;4.10;99.90;;;;;;5015461;28;20171;-88
2024/01/20 00:43:17;;;;;;;0.40;0.40;;;4.10;99.90;;;;;;5015506;28;20183;-89
2024/01/20 00:45:45;;;;;;;1.40;1.23;;;4.10;99.90;;;;;;4999250;28;20275;-89
2024/01/20 00:48:10;;;;;;;0.40;0.40;;;4.20;99.90;;;;;;5014993;28;20279;-88
2024/01/20 00:50:36;;;;;;;0.80;0.57;;;4.30;99.90;;;;;;4999434;28;20211;-87
2024/01/20 00:53:02;;;;;;;1.60;1.37;;;4.30;99.90;;;;;;4999022;28;20211;-89
2024/01/20 00:55:28;;;;;;;1.30;1.30;;;4.30;99.90;;;;;;5015848;28;20188;-87
2024/01/20 00:57:53;;;;;;;0.87;0.47;;;4.30;99.90;;;;;;5015113;28;20202;-89
2024/01/20 01:00:19;;;;;;;0.63;0.63;;;4.40;99.90;;;;;;5015632;28;20624;-88
2024/01/20 01:02:45;;;;;;;0.40;0.40;;;4.30;99.90;;;;;;4998957;28;20302;-89
2024/01/20 01:05:11;;;;;;;0.50;0.50;;;4.30;99.90;;;;;;4998981;28;20735;-87
2024/01/20 01:07:36;;;;;;;0.63;0.63;;;4.20;99.90;;;;;;4998488;28;20238;-90
2024/01/20 01:10:03;;;;;;;0.40;0.40;;;4.20;99.90;;;;;;4998750;28;20187;-89
2024/01/20 01:12:29;;;;;;;0.30;0.30;;;4.20;99.90;;;;;;5016288;28;20183;-89
2024/01/20 01:14:55;;;;;;;0.70;0.70;;;4.10;99.90;;;;;;5016078;28;20206;-89
2024/01/20 01:17:21;;;;;;;0.40;0.40;;;4.10;99.90;;;;;;5015467;28;20638;-89
2024/01/20 01:19:47;;;;;;;18.77;0.83;;;4.00;99.90;;;;;;5014726;28;20175;-89
2024/01/20 01:22:13;;;;;;;6.40;1.43;;;4.10;99.90;;;;;;5014565;28;20289;-89
2024/01/20 01:24:39;;;;;;;11.50;1.17;;;4.00;99.90;;;;;;5015296;28;20193;-91
2024/01/20 01:27:08;;;;;;;0.40;0.40;;;4.00;99.90;;;;;;4998253;28;20184;-88
2024/01/20 01:29:34;;;;;;;2.10;1.23;;;4.00;99.90;;;;;;5014681;28;20263;-88
2024/01/20 01:32:00;;;;;;;0.77;0.77;;;4.00;99.90;;;;;;5016140;28;20574;-88
2024/01/20 01:34:25;;;;;;;0.73;0.73;;;4.00;99.90;;;;;;5015078;28;20176;-91
2024/01/20 01:36:51;;;;;;;0.30;0.30;;;4.00;99.90;;;;;;5015487;28;20260;-90
2024/01/20 01:39:17;;;;;;;23.43;1.27;;;4.00;99.90;;;;;;5015423;28;20183;-88
2024/01/20 01:41:44;;;;;;;0.53;0.53;;;4.00;99.90;;;;;;5014375;28;20211;-88
2024/01/20 01:44:13;;;;;;;0.33;0.33;;;4.10;99.90;;;;;;5014592;28;20179;-90
2024/01/20 01:46:41;;;;;;;0.40;0.40;;;4.00;99.90;;;;;;5014512;28;20514;-90
2024/01/20 01:49:07;;;;;;;0.30;0.30;;;4.00;99.90;;;;;;4998352;28;20184;-88
2024/01/20 01:51:33;;;;;;;0.53;0.53;;;4.00;99.90;;;;;;4997935;28;20658;-89
2024/01/20 01:54:02;;;;;;;0.40;0.40;;;4.10;99.90;;;;;;4997695;28;20616;-89
2024/01/20 01:56:29;;;;;;;2.20;0.80;;;4.20;99.90;;;;;;5015237;28;20179;-89
2024/01/20 01:58:56;;;;;;;0.27;0.27;;;4.20;99.90;;;;;;5014225;28;20206;-89
2024/01/20 02:01:22;;;;;;;1.80;1.70;;;4.30;99.90;;;;;;4998491;28;20210;-88
2024/01/20 02:03:48;;;;;;;0.33;0.33;;;4.40;99.90;;;;;;5014053;28;20231;-89
2024/01/20 02:06:15;;;;;;;0.30;0.30;;;4.40;99.90;;;;;;5014488;28;20180;-89
2024/01/20 02:08:41;;;;;;;0.53;0.53;;;4.40;99.90;;;;;;5013756;28;20243;-88
2024/01/20 02:11:07;;;;;;;0.50;0.50;;;4.40;99.90;;;;;;5013361;28;20545;-88
2024/01/20 02:13:34;;;;;;;0.63;0.57;;;4.40;99.90;;;;;;4997377;28;20207;-87
2024/01/20 02:16:01;;;;;;;0.43;0.43;;;4.40;99.90;;;;;;5013377;28;20175;-86
2024/01/20 02:18:27;;;;;;;0.30;0.30;;;4.40;99.90;;;;;;5013722;28;20226;-88
2024/01/20 02:20:53;;;;;;;7.83;1.10;;;4.30;99.90;;;;;;5014389;28;20206;-87
2024/01/20 02:23:19;;;;;;;7.30;2.33;;;4.20;99.90;;;;;;5013499;28;20187;-88
2024/01/20 02:25:46;;;;;;;0.50;0.50;;;4.20;99.90;;;;;;4997351;28;20632;-88
2024/01/20 02:28:12;;;;;;;0.30;0.30;;;4.10;99.90;;;;;;5013575;28;20180;-89
2024/01/20 02:30:38;;;;;;;1.40;0.80;;;4.10;99.90;;;;;;4997205;28;20193;-88
2024/01/20 02:33:04;;;;;;;0.30;0.30;;;4.00;99.90;;;;;;5013491;28;20184;-89
2024/01/20 02:35:29;;;;;;;0.57;0.57;;;4.00;99.90;;;;;;4997008;28;20187;-88
2024/01/20 02:37:55;;;;;;;0.83;0.83;;;4.00;99.90;;;;;;5013775;28;20199;-86
2024/01/20 02:40:21;;;;;;;0.50;0.50;;;4.10;99.90;;;;;;5013725;28;20198;-89
2024/01/20 02:42:47;;;;;;;0.80;0.80;;;4.00;99.90;;;;;;5013416;28;20200;-89
2024/01/20 02:45:13;;;;;;;0.40;0.40;;;4.00;99.90;;;;;;4996214;28;20187;-88
2024/01/20 02:47:39;;;;;;;0.37;0.37;;;4.00;99.90;;;;;;4996477;28;20199;-90
2024/01/20 02:50:05;;;;;;;0.40;0.40;;;4.10;99.90;;;;;;4996639;28;20187;-88
2024/01/20 02:52:31;;;;;;;0.80;0.77;;;4.00;99.90;;;;;;4996776;28;20192;-88
2024/01/20 02:54:57;;;;;;;1.27;0.90;;;4.00;99.90;;;;;;5012770;28;20230;-89
2024/01/20 02:57:24;;;;;;;0.30;0.30;;;3.90;99.90;;;;;;4996930;28;20176;-87
2024/01/20 02:59:49;;;;;;;0.47;0.47;;;3.90;99.90;;;;;;4998127;28;20183;-87
2024/01/20 03:02:15;;;;;;;0.63;0.63;;;3.90;99.90;;;;;;5015337;28;20215;-91
2024/01/20 03:04:41;;;;;;;0.30;0.30;;;3.90;99.90;;;;;;4997799;28;20275;-87
2024/01/20 03:07:07;;;;;;;0.80;0.80;;;3.80;99.90;;;;;;5012841;28;20231;-89
2024/01/20 03:09:32;;;;;;;1.27;1.27;;;3.90;99.90;;;;;;4996286;28;20234;-90
2024/01/20 03:11:58;;;;;;;0.60;0.60;;;3.90;99.90;;;;;;4996942;28;20630;-89
2024/01/20 03:14:24;;;;;;;1.30;1.20;;;3.90;99.90;;;;;;5013564;28;20198;-85
2024/01/20 03:16:50;;;;;;;0.37;0.37;;;3.90;99.90;;;;;;5011926;28;20601;-84
2024/01/20 03:19:16;;;;;;;0.47;0.47;;;3.90;99.90;;;;;;4995751;28;20191;-84
2024/01/20 03:21:41;;;;;;;0.47;0.47;;;3.80;99.90;;;;;;5011479;28;20602;-84
2024/01/20 03:24:07;;;;;;;2.40;0.90;;;3.80;99.90;;;;;;4995861;28;20539;-84
2024/01/20 03:26:33;;;;;;;0.40;0.40;;;3.90;99.90;;;;;;5011918;28;20192;-85
2024/01/20 03:28:59;;;;;;;0.60;0.60;;;3.80;99.90;;;;;;4995535;28;20176;-83
2024/01/20 03:31:25;;;;;;;0.30;0.30;;;3.90;99.90;;;;;;4995672;28;20669;-83
2024/01/20 03:33:51;;;;;;;5.80;0.60;;;3.80;99.90;;;;;;4995292;28;20184;-82
2024/01/20 03:36:16;;;;;;;0.40;0.40;;;3.90;99.90;;;;;;4995597;28;20278;-84
2024/01/20 03:38:42;;;;;;;0.73;0.73;;;3.90;99.90;;;;;;5011830;28;20626;-83
2024/01/20 03:41:08;;;;;;;1.00;1.00;;;3.90;99.90;;;;;;4995359;28;20207;-84
2024/01/20 03:43:34;;;;;;;0.37;0.37;;;3.90;99.90;;;;;;4995357;28;20179;-84
2024/01/20 03:45:59;;;;;;;1.03;1.03;;;4.00;99.90;;;;;;4995382;28;20632;-84
2024/01/20 03:48:25;;;;;;;0.60;0.60;;;4.00;99.90;;;;;;4994990;28;20514;-83
2024/01/20 03:50:51;;;;;;;9.03;1.57;;;3.90;99.90;;;;;;5011367;28;20585;-83
2024/01/20 03:53:17;;;;;;;0.30;0.30;;;3.90;99.90;;;;;;4995010;28;20186;-84
2024/01/20 03:55:42;;;;;;;5.10;0.97;;;4.00;99.90;;;;;;5012077;28;20182;-83
2024/01/20 03:58:08;;;;;;;0.60;0.60;;;4.00;99.90;;;;;;5015158;28;20648;-83
2024/01/20 04:00:34;;;;;;;2.00;1.80;;;4.10;99.90;;;;;;5015067;28;20562;-84
2024/01/20 04:03:02;;;;;;;0.60;0.60;;;4.10;99.90;;;;;;5015231;28;20269;-84
2024/01/20 04:05:28;;;;;;;10.93;1.60;;;4.10;99.90;;;;;;4999247;28;20184;-84
2024/01/20 04:07:54;;;;;;;3.80;0.83;;;4.10;99.90;;;;;;5016454;28;20286;-86
2024/01/20 04:10:19;;;;;;;1.27;0.63;;;4.00;99.90;;;;;;4998787;28;20253;-83
2024/01/20 04:12:45;;;;;;;0.30;0.30;;;4.00;99.90;;;;;;4999081;28;20190;-84
2024/01/20 04:15:11;;;;;;;0.30;0.30;;;3.90;99.90;;;;;;5014912;28;20263;-84
2024/01/20 04:17:37;;;;;;;0.53;0.50;;;4.00;99.90;;;;;;4998880;28;20187;-84
2024/01/20 04:20:04;;;;;;;0.40;0.40;;;4.00;99.90;;;;;;4998472;28;20632;-84
2024/01/20 04:22:30;;;;;;;0.30;0.30;;;3.90;99.90;;;;;;5015497;28;20287;-84
2024/01/20 04:24:56;;;;;;;6.60;1.07;;;3.90;99.90;;;;;;4998757;28;20188;-85
2024/01/20 04:27:21;;;;;;;0.60;0.60;;;3.90;99.90;;;;;;4998363;28;20514;-85
2024/01/20 04:29:47;;;;;;;0.33;0.33;;;3.90;99.90;;;;;;4998517;28;20179;-83
2024/01/20 04:32:13;;;;;;;0.40;0.40;;;3.80;99.90;;;;;;4998213;28;20274;-84
2024/01/20 04:34:39;;;;;;;0.40;0.40;;;3.80;99.90;;;;;;4998701;28;20188;-84
2024/01/20 04:37:06;;;;;;;11.83;1.07;;;3.80;99.90;;;;;;5015312;28;20191;-84
2024/01/20 04:39:32;;;;;;;1.07;0.50;;;3.70;99.90;;;;;;5014056;28;20179;-85
2024/01/20 04:41:57;;;;;;;0.30;0.30;;;3.70;99.90;;;;;;5014767;28;20687;-84
2024/01/20 04:44:23;;;;;;;0.30;0.30;;;3.70;99.90;;;;;;5013856;28;20192;-84
2024/01/20 04:46:49;;;;;;;1.93;1.90;;;3.70;99.90;;;;;;4997687;28;20179;-84
2024/01/20 04:49:14;;;;;;;1.30;1.30;;;3.60;99.90;;;;;;4997948;28;20235;-84
2024/01/20 04:51:40;;;;;;;0.60;0.60;;;3.60;99.90;;;;;;5013978;28;20579;-84
2024/01/20 04:54:06;;;;;;;2.10;0.70;;;3.70;99.90;;;;;;4997755;28;20655;-84
2024/01/20 04:56:31;;;;;;;0.50;0.40;;;3.70;99.90;;;;;;4997350;28;20180;-83
2024/01/20 04:58:57;;;;;;;0.40;0.40;;;3.60;99.90;;;;;;5014200;28;20184;-84
2024/01/20 05:01:23;;;;;;;4.47;1.07;;;3.80;99.90;;;;;;4997322;28;20219;-84
2024/01/20 05:03:49;;;;;;;0.60;0.47;;;3.70;99.90;;;;;;4997402;28;20184;-82
2024/01/20 05:06:15;;;;;;;0.30;0.30;;;3.70;99.90;;;;;;5014127;28;20191;-84
2024/01/20 05:08:40;;;;;;;0.37;0.37;;;3.70;99.90;;;;;;4996636;28;20235;-85
2024/01/20 05:11:07;;;;;;;0.33;0.33;;;3.70;99.90;;;;;;4997894;28;20180;-84
2024/01/20 05:13:32;;;;;;;0.30;0.30;;;3.60;99.90;;;;;;5014250;28;20203;-84
2024/01/20 05:15:59;;;;;;;0.40;0.40;;;3.70;99.90;;;;;;5013749;28;20716;-84
2024/01/20 05:18:25;;;;;;;1.17;1.07;;;3.60;99.90;;;;;;5014245;28;20183;-84
2024/01/20 05:20:51;;;;;;;0.30;0.30;;;3.60;99.90;;;;;;4997531;28;20183;-84
2024/01/20 05:23:18;;;;;;;0.30;0.30;;;3.60;99.90;;;;;;5013921;28;20214;-83
2024/01/20 05:25:44;;;;;;;0.50;0.50;;;3.50;99.90;;;;;;5013700;28;20179;-84
2024/01/20 05:28:09;;;;;;;1.07;0.67;;;3.50;99.90;;;;;;5013758;28;20239;-85
2024/01/20 05:30:35;;;;;;;0.40;0.40;;;3.60;99.90;;;;;;4997080;28;20184;-84
2024/01/20 05:33:01;;;;;;;1.83;1.77;;;3.50;99.90;;;;;;5013529;28;20175;-85
2024/01/20 05:35:27;;;;;;;0.80;0.80;;;3.50;99.90;;;;;;4996948;28;20600;-84
2024/01/20 05:37:52;;;;;;;1.03;0.93;;;3.50;99.90;;;;;;4996687;28;20651;-84
2024/01/20 05:40:18;;;;;;;0.30;0.30;;;3.50;99.90;;;;;;5014399;28;20265;-84
2024/01/20 05:42:44;;;;;;;0.40;0.40;;;3.50;99.90;;;;;;4996676;28;20207;-84
2024/01/20 05:45:10;;;;;;;0.47;0.47;;;3.50;99.90;;;;;;5012845;28;20548;-84
2024/01/20 05:47:36;;;;;;;1.87;1.60;;;3.60;99.90;;;;;;4996540;28;20332;-84
2024/01/20 05:50:05;;;;;;;0.80;0.80;;;3.60;99.90;;;;;;5013293;28;20668;-84
2024/01/20 05:52:31;;;;;;;0.30;0.30;;;3.60;99.90;;;;;;4996625;28;20526;-83
2024/01/20 05:54:57;;;;;;;0.70;0.70;;;3.60;99.90;;;;;;4996508;28;20270;-84
2024/01/20 05:57:23;;;;;;;1.13;1.13;;;3.60;99.90;;;;;;5012601;28;20233;-83
2024/01/20 05:59:49;;;;;;;4.23;0.80;;;3.50;99.90;;;;;;4996407;28;20196;-84
2024/01/20 06:02:16;;;;;;;4.73;1.47;;;3.60;99.90;;;;;;5012795;28;20745;-85
2024/01/20 06:04:41;;;;;;;0.40;0.40;;;3.50;99.90;;;;;;4996574;28;20187;-84
2024/01/20 06:07:07;;;;;;;0.70;0.70;;;3.60;99.90;;;;;;4996348;28;20180;-83
2024/01/20 06:09:33;;;;;;;11.40;0.70;;;3.60;99.90;;;;;;5013980;28;20653;-83
2024/01/20 06:11:58;;;;;;;0.70;0.70;;;3.50;99.90;;;;;;4996549;28;20188;-83
2024/01/20 06:14:24;;;;;;;4.43;1.57;;;3.50;99.90;;;;;;4996728;28;20187;-84
2024/01/20 06:16:50;;;;;;;0.70;0.70;;;3.50;99.90;;;;;;5013694;28;20203;-84
2024/01/20 06:19:16;;;;;;;0.30;0.30;;;3.40;99.90;;;;;;4996549;28;20188;-84
2024/01/20 06:21:42;;;;;;;0.40;0.40;;;3.40;99.90;;;;;;4996272;28;20215;-84
2024/01/20 06:24:07;;;;;;;4.73;1.50;;;3.30;99.90;;;;;;5013102;28;20275;-83
2024/01/20 06:26:33;;;;;;;1.83;1.27;;;3.40;99.90;;;;;;5012624;28;20211;-83
2024/01/20 06:28:59;;;;;;;0.83;0.83;;;3.30;99.90;;;;;;4996243;28;20214;-83
2024/01/20 06:31:26;;;;;;;0.37;0.37;;;3.30;99.90;;;;;;5012528;28;20705;-83
2024/01/20 06:33:53;;;;;;;0.30;0.30;;;3.30;99.90;;;;;;5012253;28;20541;-84
2024/01/20 06:36:24;;;;;;;0.40;0.40;;;3.20;99.90;;;;;;5012294;28;20184;-84
2024/01/20 06:38:50;;;;;;;0.30;0.30;;;3.30;99.90;;;;;;5012677;28;20211;-84
2024/01/20 06:41:17;;;;;;;1.13;1.07;;;3.30;99.90;;;;;;5012097;28;20211;-85
2024/01/20 06:43:43;;;;;;;0.40;0.40;;;3.30;99.90;;;;;;5012308;28;20240;-84
2024/01/20 06:46:08;;;;;;;0.30;0.30;;;3.40;99.90;;;;;;4996208;28;20253;-85
2024/01/20 06:48:34;;;;;;;0.60;0.60;;;3.30;99.90;;;;;;5012134;28;20184;-85
2024/01/20 06:51:04;;;;;;;0.30;0.30;;;3.50;99.90;;;;;;5013263;28;20191;-85
2024/01/20 06:53:31;;;;;;;0.50;0.50;;;3.30;99.90;;;;;;5012685;28;20196;-85
2024/01/20 06:55:57;;;;;;;1.17;0.80;;;3.40;99.90;;;;;;5012293;28;20207;-84
2024/01/20 06:58:24;;;;;;;0.60;0.60;;;3.40;99.90;;;;;;5012072;28;20187;-86
2024/01/20 07:00:50;;;;;;;0.30;0.30;;;3.50;99.90;;;;;;5012007;28;20183;-82
2024/01/20 07:03:16;;;;;;;0.30;0.30;;;3.50;99.90;;;;;;5012360;28;20555;-84
2024/01/20 07:05:42;;;;;;;0.83;0.83;;;3.70;99.90;;;;;;5012925;28;20187;-84
2024/01/20 07:08:11;;;;;;;0.40;0.40;;;3.70;99.90;;;;;;5013140;28;20190;-84
2024/01/20 07:10:38;;;;;;;0.40;0.40;;;3.80;99.90;;;;;;4995362;28;20326;-85
2024/01/20 07:13:03;;;;;;;0.40;0.40;;;3.90;99.90;;;;;;4996248;28;20199;-86
2024/01/20 07:15:29;;;;;;;0.63;0.63;;;3.90;99.90;;;;;;4995707;28;20180;-85
2024/01/20 07:17:58;;;;;;;0.63;0.63;;;4.00;99.90;;;;;;4995278;28;20214;-83
2024/01/20 07:20:25;;;;;;;0.50;0.50;;;4.10;99.90;;;;;;5011306;28;20584;-84
2024/01/20 07:22:51;;;;;;;0.43;0.43;;;4.10;99.90;;;;;;5011681;28;20207;-86
2024/01/20 07:25:17;;;;;;;0.57;0.57;;;4.10;99.90;;;;;;5011746;28;20187;-85
2024/01/20 07:27:43;;;;;;;0.50;0.50;;;4.30;99.90;;;;;;5011986;28;20221;-84
2024/01/20 07:30:10;;;;;;;0.40;0.40;;;4.20;99.90;;;;;;5012003;28;20192;-85
2024/01/20 07:32:39;;;;;;;0.77;0.77;;;4.20;99.90;;;;;;5014921;28;20243;-85
2024/01/20 07:35:05;;;;;;;0.30;0.30;;;4.20;99.90;;;;;;5015439;28;20235;-85
2024/01/20 07:37:35;;;;;;;0.30;0.30;;;4.10;99.90;;;;;;5015263;28;20195;-84
2024/01/20 07:40:03;;;;;;;0.83;0.83;;;4.10;99.90;;;;;;4999657;28;20195;-85
2024/01/20 07:42:28;;;;;;;0.87;0.83;;;4.10;99.90;;;;;;4998812;28;20610;-85
2024/01/20 07:44:54;;;;;;;1.17;1.13;;;4.10;99.90;;;;;;5015250;28;20179;-85
2024/01/20 07:47:20;;;;;;;0.23;0.23;;;4.20;99.90;;;;;;5015045;28;20226;-84
2024/01/20 07:49:46;;;;;;;8.30;1.17;;;4.20;99.90;;;;;;4999489;28;20647;-86
2024/01/20 07:52:11;;;;;;;0.47;0.47;;;4.20;99.90;;;;;;5015112;28;20215;-84
2024/01/20 07:54:37;;;;;;;1.60;1.00;;;4.20;99.90;;;;;;5014861;28;20188;-83
2024/01/20 07:57:03;;;;;;;0.43;0.43;;;4.30;99.90;;;;;;4999094;28;20203;-85
2024/01/20 07:59:29;;;;;;;1.03;0.77;;;3.80;99.90;;;;;;4999915;28;20233;-94
2024/01/20 08:01:55;;;;;;;1.20;1.20;;;3.50;99.90;;;;;;5016301;28;20211;-96
2024/01/20 08:04:21;;;;;;;3.63;3.10;;;3.30;99.90;;;;;;5016460;28;20199;-96
2024/01/20 08:06:47;;;;;;;2.13;1.93;;;3.10;99.90;;;;;;5018029;28;20278;-96
2024/01/20 08:09:13;;;;;;;2.70;2.50;;;2.90;99.90;;;;;;5016778;28;20702;-94
2024/01/20 08:11:38;;;;;;;1.90;1.80;;;2.80;99.90;;;;;;5000840;28;20194;-93
2024/01/20 08:14:04;;;;;;;9.77;2.40;;;2.80;99.90;;;;;;5000537;28;20191;-95
2024/01/20 08:16:30;;;;;;;9.00;3.53;;;2.70;99.90;;;;;;5016865;28;20596;-95
2024/01/20 08:18:56;;;;;;;1.20;1.20;;;2.70;99.90;;;;;;5016200;28;20225;-96
2024/01/20 08:21:22;;;;;;;2.70;2.17;;;2.80;99.90;;;;;;5016793;28;20199;-96
2024/01/20 08:23:48;;;;;;;8.90;4.37;;;2.70;99.90;;;;;;5016140;28;20179;-96
2024/01/20 08:26:13;;;;;;;2.73;2.33;;;2.70;99.90;;;;;;5000555;28;20229;-96
2024/01/20 08:28:39;;;;;;;9.20;3.50;;;2.70;99.90;;;;;;5016608;28;20202;-95
2024/01/20 08:31:05;;;;;;;5.80;3.23;;;2.60;99.90;;;;;;5001370;28;20188;-96
2024/01/20 08:33:31;;;;;;;4.13;3.83;;;2.60;99.90;;;;;;5016106;28;20175;-96
2024/01/20 08:35:57;;;;;;;2.03;1.90;;;2.60;99.90;;;;;;5016559;28;20207;-96
2024/01/20 08:38:23;;;;;;;3.83;3.60;;;2.60;99.90;;;;;;5017580;28;20180;-95
2024/01/20 08:40:49;;;;;;;2.27;2.17;;;2.60;99.90;;;;;;5016185;28;20259;-95
2024/01/20 08:43:15;;;;;;;5.00;3.37;;;2.60;99.90;;;;;;4998306;28;20220;-96
2024/01/20 08:45:44;;;;;;;3.73;3.53;;;2.70;99.90;;;;;;5016440;28;20188;-95
2024/01/20 08:48:11;;;;;;;2.83;2.63;;;2.60;99.90;;;;;;5016585;28;20314;-95
2024/01/20 08:50:37;;;;;;;3.30;3.10;;;2.60;99.90;;;;;;5015773;28;20179;-95
2024/01/20 08:53:03;;;;;;;4.30;4.00;;;2.70;99.90;;;;;;4999490;28;20242;-95
2024/01/20 08:55:29;;;;;;;10.50;4.83;;;2.70;99.90;;;;;;5015996;28;20183;-96
2024/01/20 08:57:56;;;;;;;3.63;2.43;;;2.50;99.90;;;;;;5016468;28;20175;-95
2024/01/20 09:00:23;;;;;;;1.67;1.57;;;2.50;99.90;;;;;;5000110;28;20187;-96
2024/01/20 09:02:48;;;;;;;12.80;4.47;;;2.40;99.90;;;;;;5015227;28;20207;-95
2024/01/20 09:05:17;;;;;;;3.87;3.57;;;2.40;99.90;;;;;;4999155;28;20194;-95
2024/01/20 09:07:43;;;;;;;6.00;4.83;;;2.40;99.90;;;;;;5015621;28;20176;-95
2024/01/20 09:10:09;;;;;;;2.93;2.70;;;2.50;99.90;;;;;;4999118;28;20231;-93
2024/01/20 09:12:35;;;;;;;3.83;3.53;;;2.50;99.90;;;;;;5015184;28;20215;-94
2024/01/20 09:15:01;;;;;;;5.57;5.07;;;2.60;99.90;;;;;;5015329;28;20183;-93
2024/01/20 09:17:27;;;;;;;5.03;4.57;;;2.60;99.90;;;;;;4999537;28;20180;-94
2024/01/20 09:19:52;;;;;;;4.20;3.77;;;2.70;99.90;;;;;;4998662;28;20184;-93
2024/01/20 09:22:18;;;;;;;4.23;3.70;;;2.70;99.90;;;;;;4998346;28;20214;-94
2024/01/20 09:24:44;;;;;;;2.30;2.13;;;2.60;99.90;;;;;;4998249;28;20241;-93
2024/01/20 09:27:10;;;;;;;8.30;6.73;;;2.70;99.90;;;;;;5014554;28;20180;-93
2024/01/20 09:29:35;;;;;;;4.50;4.10;;;2.90;99.90;;;;;;4998273;28;20183;-93
2024/01/20 09:32:01;;;;;;;15.43;2.23;;;3.00;99.90;;;;;;5015124;28;20194;-94
2024/01/20 09:34:28;;;;;;;1.93;1.83;;;2.90;99.90;;;;;;5015611;28;20230;-92
2024/01/20 09:36:54;;;;;;;3.97;3.33;;;3.00;99.90;;;;;;4999015;28;20270;-94
2024/01/20 09:39:20;;;;;;;9.63;3.80;;;3.10;99.90;;;;;;5014709;28;20199;-93
2024/01/20 09:41:47;;;;;;;3.70;3.13;;;3.00;99.90;;;;;;4998225;28;20207;-93
2024/01/20 09:44:14;;;;;;;4.97;4.60;;;3.00;99.90;;;;;;4998111;28;20188;-93
2024/01/20 09:46:40;;;;;;;4.37;3.90;;;3.20;99.90;;;;;;5014285;28;20176;-93
2024/01/20 09:49:06;;;;;;;4.17;3.87;;;3.20;99.90;;;;;;4998547;28;20191;-95
2024/01/20 09:51:32;;;;;;;2.37;2.13;;;3.30;99.90;;;;;;5013847;28;20636;-94
2024/01/20 09:53:59;;;;;;;3.87;2.40;;;3.00;99.90;;;;;;4997845;28;20187;-94
2024/01/20 09:56:28;;;;;;;4.20;3.80;;;3.40;99.90;;;;;;5015366;28;20203;-92
2024/01/20 09:59:00;;;;;;;2.27;2.10;;;3.40;99.90;;;;;;5014769;28;20175;-93
2024/01/20 10:01:27;;;;;;;4.80;2.07;;;3.40;99.90;;;;;;5014171;28;20302;-93
2024/01/20 10:03:58;;;;;;;4.67;4.37;;;3.40;99.90;;;;;;5013696;28;20180;-93
2024/01/20 10:06:24;;;;;;;6.40;5.27;;;3.20;99.90;;;;;;5014247;28;20174;-92
2024/01/20 10:08:51;;;;;;;8.87;1.93;;;3.30;99.90;;;;;;5013770;28;20227;-93
2024/01/20 10:11:17;;;;;;;5.37;2.70;;;3.40;99.90;;;;;;5014188;28;20190;-92
2024/01/20 10:13:43;;;;;;;9.60;3.93;;;3.40;99.90;;;;;;4998193;28;20568;-94
2024/01/20 10:16:08;;;;;;;3.13;2.43;;;3.60;99.90;;;;;;5014202;28;20176;-94
2024/01/20 10:18:35;;;;;;;3.07;2.77;;;3.60;99.90;;;;;;5013918;28;20664;-94
2024/01/20 10:21:10;;;;;;;2.80;2.70;;;3.50;99.90;;;;;;5013563;28;20278;-94
2024/01/20 10:23:38;;;;;;;4.37;4.07;;;3.40;99.90;;;;;;4998290;28;20273;-95
2024/01/20 10:26:06;;;;;;;9.40;3.10;;;3.40;99.90;;;;;;4997855;28;20207;-93
2024/01/20 10:28:33;;;;;;;4.57;3.20;;;3.40;99.90;;;;;;5013878;28;20179;-94
2024/01/20 10:31:08;;;;;;;2.57;2.37;;;3.60;99.90;;;;;;5016844;28;20167;-96
2024/01/20 10:33:34;;;;;;;3.50;3.07;;;3.60;99.90;;;;;;5014963;28;20238;-93
2024/01/20 10:36:04;;;;;;;1.57;1.47;;;3.50;99.90;;;;;;5013448;28;20218;-96
2024/01/20 10:38:40;;;;;;;5.10;4.10;;;3.50;99.90;;;;;;5014280;28;20160;-93
2024/01/20 10:41:13;;;;;;;4.57;3.03;;;3.70;99.90;;;;;;5013252;28;20199;-93
2024/01/20 10:43:50;;;;;;;2.23;2.10;;;3.50;99.90;;;;;;5013293;28;20183;-93
2024/01/20 10:46:24;;;;;;;2.20;2.00;;;3.60;99.90;;;;;;5013700;28;20187;-94
2024/01/20 10:48:53;;;;;;;3.37;2.90;;;3.50;99.90;;;;;;5013115;28;20171;-93
2024/01/20 10:51:25;;;;;;;2.50;2.37;;;3.70;99.90;;;;;;5014298;28;20178;-93
2024/01/20 10:53:51;;;;;;;2.57;2.37;;;3.70;99.90;;;;;;5013564;28;20270;-94
2024/01/20 10:56:17;;;;;;;3.40;3.20;;;3.80;99.90;;;;;;5013299;28;20198;-94
2024/01/20 10:58:50;;;;;;;1.93;1.83;;;3.60;99.90;;;;;;5013943;28;20623;-95
2024/01/20 11:01:16;;;;;;;1.50;1.40;;;3.80;99.90;;;;;;5013738;28;20167;-95
2024/01/20 11:03:43;;;;;;;8.70;3.93;;;3.80;99.90;;;;;;5013504;28;20211;-96
2024/01/20 11:06:19;;;;;;;3.83;3.50;;;3.90;99.90;;;;;;5013793;28;20249;-95
2024/01/20 11:08:50;;;;;;;2.17;2.07;;;3.80;99.90;;;;;;4996940;28;20190;-95
2024/01/20 11:11:18;;;;;;;6.50;3.80;;;3.80;99.90;;;;;;5014328;28;20176;-95
2024/01/20 11:13:48;;;;;;;1.20;1.20;;;3.60;99.90;;;;;;5014064;28;20182;-95
2024/01/20 11:16:19;;;;;;;1.47;1.37;;;3.80;99.90;;;;;;5013844;28;20179;-95
2024/01/20 11:18:45;;;;;;;2.57;2.47;;;3.80;99.90;;;;;;5013144;28;20283;-95
2024/01/20 11:21:15;;;;;;;3.87;3.67;;;3.60;99.90;;;;;;5013479;28;20215;-95
2024/01/20 11:23:46;;;;;;;1.40;1.40;;;3.70;99.90;;;;;;5013330;28;20179;-95
2024/01/20 11:26:12;;;;;;;5.17;4.87;;;3.80;99.90;;;;;;5012642;28;20164;-93
2024/01/20 11:28:43;;;;;;;5.07;4.70;;;3.70;99.90;;;;;;5014127;28;20183;-94
2024/01/20 11:31:19;;;;;;;2.03;1.67;;;3.70;99.90;;;;;;5013771;28;20163;-95
2024/01/20 11:33:46;;;;;;;1.43;1.43;;;3.70;99.90;;;;;;4996973;28;20233;-95
2024/01/20 11:36:12;;;;;;;5.17;3.80;;;3.80;99.90;;;;;;4996707;28;20207;-93
2024/01/20 11:38:38;;;;;;;4.83;4.43;;;3.90;99.90;;;;;;5014062;28;20186;-96
2024/01/20 11:41:04;;;;;;;4.43;4.17;;;3.80;99.90;;;;;;5012874;28;20186;-94
2024/01/20 11:43:30;;;;;;;2.63;1.97;;;4.00;99.90;;;;;;4996879;28;20180;-95
2024/01/20 11:45:56;;;;;;;2.30;2.10;;;3.80;99.90;;;;;;4996998;28;20273;-95
2024/01/20 11:48:23;;;;;;;3.43;3.17;;;3.90;99.90;;;;;;5012908;28;20187;-95
2024/01/20 11:50:49;;;;;;;3.63;3.43;;;4.10;99.90;;;;;;4996335;28;20215;-96
2024/01/20 11:53:16;;;;;;;3.23;2.80;;;4.20;99.90;;;;;;4996828;28;20293;-96
2024/01/20 11:55:55;;;;;;;4.60;3.70;;;4.00;99.90;;;;;;4995874;28;20702;-93
2024/01/20 11:58:22;;;;;;;5.50;4.57;;;4.00;99.90;;;;;;4996423;28;20184;-93
2024/01/20 12:00:51;;;;;;;2.53;2.43;;;3.90;99.90;;;;;;5012474;28;20688;-94
2024/01/20 12:03:18;;;;;;;3.57;3.27;;;4.00;99.90;;;;;;4996607;28;20258;-93
2024/01/20 12:05:44;;;;;;;3.37;2.67;;;3.90;99.90;;;;;;4995862;28;20210;-94
2024/01/20 12:08:12;;;;;;;3.53;3.23;;;4.10;99.90;;;;;;4996683;28;20176;-93
2024/01/20 12:10:40;;;;;;;2.20;2.10;;;3.90;99.90;;;;;;4996070;28;20238;-93
2024/01/20 12:13:09;;;;;;;4.23;3.47;;;3.80;99.90;;;;;;5012387;28;20176;-94
2024/01/20 12:15:44;;;;;;;3.80;3.33;;;3.90;99.90;;;;;;4996575;28;20186;-93
2024/01/20 12:18:10;;;;;;;3.87;3.57;;;4.00;99.90;;;;;;5014778;28;20202;-93
2024/01/20 12:20:40;;;;;;;2.83;2.73;;;3.80;99.90;;;;;;5000359;28;20211;-93
2024/01/20 12:23:05;;;;;;;1.93;1.67;;;3.80;99.90;;;;;;4999439;28;20208;-93
2024/01/20 12:25:32;;;;;;;4.77;4.37;;;3.80;99.90;;;;;;5015946;28;20206;-94
2024/01/20 12:27:59;;;;;;;4.33;3.93;;;3.90;99.90;;;;;;4999940;28;20187;-93
2024/01/20 12:30:25;;;;;;;3.13;2.90;;;3.90;99.90;;;;;;4999846;28;20496;-93
2024/01/20 12:32:51;;;;;;;5.87;4.60;;;3.80;99.90;;;;;;4999570;28;20257;-94
2024/01/20 12:35:18;;;;;;;8.47;4.53;;;3.90;99.90;;;;;;4999446;28;20179;-94
2024/01/20 12:37:44;;;;;;;4.93;3.27;;;4.10;99.90;;;;;;5015548;28;20522;-94
2024/01/20 12:40:11;;;;;;;2.93;2.73;;;4.10;99.90;;;;;;4999584;28;20655;-94
2024/01/20 12:42:37;;;;;;;2.97;2.70;;;4.10;99.90;;;;;;4999517;28;20246;-95
2024/01/20 12:45:06;;;;;;;6.20;3.50;;;4.20;99.90;;;;;;5016319;28;20226;-93
2024/01/20 12:47:33;;;;;;;1.60;1.53;;;4.00;99.90;;;;;;4999287;28;20237;-93
2024/01/20 12:49:58;;;;;;;3.33;3.03;;;4.00;99.90;;;;;;4998911;28;20636;-92
2024/01/20 12:52:25;;;;;;;2.83;2.57;;;4.00;99.90;;;;;;4998556;28;20189;-96
2024/01/20 12:54:53;;;;;;;4.10;2.27;;;3.90;99.90;;;;;;4999099;28;20189;-93